In Rescue
 
Open Full Screen Window  High Contrast Mode
Wind Gusting 00 knots
06
November 29, 2022 8:13 AM CST
Weather Information
Wind Direction
  280 °
Wind Speed
  06 kt (7 mph)
Wind Gust
  00 kt (0 mph)
Altimeter
29.70 in
Visibility
10 SM
Temperature
-03° C
27° F
Dewpoint
-04° C
25° F
Humidity
93%
1hr Rain Fall
00.00 in.
24hr Rain Fall
00.02 in.
Sky Condition
Clear
VFR

METAR KTWM 291413Z AUTO 28006KT 10SM CLR M03/M04 A2970 RMK AO2

FAA Disclaimer: The data displayed is for advisory purposes only and is not to be used for flight planning or operations.